Data for 06/13/2014

Time Sea-Level Adjusted Pressure Absolute Pressure Temperature Relative Humidity Dew Point   
(mb) (inHg) (mb) (inHg) (C) (F) (%) (C) (F)
00:05 1008 29.77 837 24.72 15 59.1 63 8.2 46.8
00:10 1008 29.77 837 24.72 15 58.9 64 8.3 47
00:15 1008 29.77 838 24.75 14.9 58.8 64 8.3 46.9
00:20 1008 29.77 838 24.75 14.9 58.8 64 8.2 46.8
00:25 1008 29.77 837 24.72 14.9 58.9 64 8.2 46.8
00:30 1008 29.77 837 24.72 14.9 58.8 64 8.2 46.8
00:35 1008 29.77 837 24.72 14.8 58.7 64 8.2 46.8
00:40 1008 29.77 837 24.72 14.8 58.6 64 8.2 46.7
00:45 1008 29.77 837 24.72 14.7 58.5 65 8.2 46.8
00:50 1008 29.77 837 24.72 14.6 58.3 65 8.2 46.8
00:55 1008 29.77 837 24.72 14.5 58 66 8.2 46.7
01:00 1008 29.77 837 24.72 14.3 57.8 65 8 46.4
01:05 1008 29.77 837 24.72 14.4 57.9 65 7.9 46.2
01:10 1008 29.77 837 24.72 14.4 58 65 8 46.3
01:15 1008 29.77 837 24.72 14.3 57.7 66 8.1 46.5
01:20 1008 29.77 837 24.72 14 57.2 67 8.1 46.6
01:25 1008 29.77 837 24.72 13.7 56.7 68 8 46.4
01:30 1008 29.77 837 24.72 13.6 56.5 68 7.9 46.3
01:35 1008 29.77 837 24.72 13.6 56.4 68 7.8 46
01:40 1008 29.77 837 24.72 13.6 56.4 68 7.8 46
01:45 1008 29.77 837 24.72 13.5 56.3 69 8 46.4
01:50 1008 29.77 837 24.72 13.3 55.9 71 8.1 46.6
01:55 1008 29.77 837 24.72 13 55.4 72 8.1 46.7
02:00 1008 29.77 837 24.72 12.9 55.2 73 8.1 46.6
02:05 1008 29.77 837 24.72 12.7 54.8 74 8.2 46.7
02:10 1008 29.77 837 24.72 12.4 54.4 74 8 46.4
02:15 1008 29.77 837 24.72 12.3 54.2 75 8 46.5
02:20 1008 29.77 837 24.72 12.3 54.2 75 7.9 46.3
02:25 1008 29.77 837 24.72 12.2 54 75 8 46.4
02:30 1008 29.77 837 24.72 12.2 53.9 76 8 46.4
02:35 1008 29.77 837 24.72 12.2 53.9 75 8 46.3
02:40 1008 29.77 837 24.72 12.1 53.8 75 7.9 46.3
02:45 1008 29.77 837 24.72 12.2 54 75 7.9 46.3
02:50 1008 29.77 837 24.72 12.4 54.2 74 7.9 46.2
02:55 1008 29.77 837 24.72 12.5 54.4 74 7.9 46.2
03:00 1008 29.77 838 24.75 12.6 54.6 74 8.1 46.6
03:05 1008 29.77 837 24.72 12.5 54.6 74 8.2 46.7
03:10 1008 29.77 838 24.75 12.4 54.3 75 8.2 46.8
03:15 1009 29.8 838 24.75 12.4 54.3 75 8.1 46.6
03:20 1009 29.8 838 24.75 12.2 54 75 8 46.4
03:25 1009 29.8 838 24.75 12.1 53.8 77 8.2 46.7
03:30 1009 29.8 838 24.75 11.6 52.8 78 7.8 46.1
03:35 1009 29.8 838 24.75 11.2 52.1 78 7.5 45.6
03:40 1009 29.8 838 24.75 11.4 52.5 76 7.4 45.3
03:45 1009 29.8 838 24.75 11.5 52.7 76 7.4 45.4
03:50 1009 29.8 838 24.75 11.5 52.6 77 7.5 45.6
03:55 1009 29.8 838 24.75 11.3 52.3 78 7.6 45.7
04:00 1009 29.8 838 24.75 11.2 52.1 78 7.6 45.6
04:05 1009 29.8 839 24.78 11.2 52.1 78 7.5 45.5
04:10 1010 29.83 839 24.78 11.2 52.1 78 7.6 45.7
04:15 1010 29.83 839 24.78 11.3 52.4 77 7.5 45.5
04:20 1010 29.83 839 24.78 11.6 52.8 76 7.6 45.6
04:25 1010 29.83 839 24.78 11.6 52.9 76 7.6 45.6
04:30 1010 29.83 839 24.78 11.7 53 76 7.6 45.7
04:35 1010 29.83 839 24.78 11.6 52.9 77 7.7 45.9
04:40 1010 29.83 839 24.78 11.6 52.8 77 7.7 45.9
04:45 1010 29.83 839 24.78 11.6 52.9 77 7.8 46
04:50 1010 29.83 839 24.78 11.6 52.9 76 7.6 45.8
04:55 1010 29.83 839 24.78 11.6 53 77 7.7 45.9
05:00 1010 29.83 839 24.78 11.7 53 77 7.7 45.9
05:05 1010 29.83 839 24.78 11.7 53 76 7.7 45.8
05:10 1010 29.83 839 24.78 11.7 53 77 7.7 45.9
05:15 1010 29.83 839 24.78 11.7 53 76 7.7 45.8
05:20 1010 29.83 839 24.78 11.7 53 76 7.5 45.6
05:25 1010 29.83 839 24.78 11.7 53 75 7.5 45.4
05:30 1010 29.83 839 24.78 11.6 52.9 76 7.6 45.7
05:35 1010 29.83 839 24.78 11.5 52.8 76 7.5 45.5
05:40 1010 29.83 839 24.78 11.6 52.9 75 7.3 45.2
05:45 1010 29.83 839 24.78 11.8 53.3 73 7.2 45
05:50 1010 29.83 839 24.78 11.9 53.4 74 7.4 45.3
05:55 1010 29.83 839 24.78 12 53.5 74 7.4 45.3
06:00 1010 29.83 839 24.78 12 53.6 73 7.3 45.2
06:05 1010 29.83 839 24.78 12.1 53.7 72 7.2 44.9
06:10 1010 29.83 839 24.78 12.4 54.2 71 7.2 45
06:15 1010 29.83 839 24.78 12.4 54.3 71 7.3 45.1
06:20 1010 29.83 839 24.78 12.5 54.5 69 7.1 44.8
06:25 1010 29.83 839 24.78 12.8 55.1 69 7.3 45.1
06:30 1010 29.83 839 24.78 13.1 55.6 68 7.3 45.1
06:35 1010 29.83 839 24.78 13.5 56.3 65 7 44.6
06:40 1010 29.83 839 24.78 13.7 56.6 65 7.2 45
06:45 1010 29.83 839 24.78 13.8 56.9 63 7 44.6
06:50 1010 29.83 840 24.81 13.9 57 63 6.9 44.5
06:55 1010 29.83 840 24.81 13.9 57 62 6.8 44.3
07:00 1010 29.83 840 24.81 13.8 56.9 63 7 44.6
07:05 1010 29.83 839 24.78 13.9 57 63 6.9 44.5
07:10 1010 29.83 839 24.78 13.9 57.1 63 7.2 44.9
07:15 1010 29.83 839 24.78 14.2 57.6 62 7.1 44.8
07:20 1010 29.83 839 24.78 14.4 57.8 61 7.1 44.7
07:25 1010 29.83 839 24.78 14.6 58.3 61 7.3 45.1
07:30 1010 29.83 839 24.78 14.7 58.5 61 7.3 45.2
07:35 1010 29.83 839 24.78 14.8 58.6 60 7.3 45.1
07:40 1010 29.83 839 24.78 14.6 58.4 61 7.3 45.2
07:45 1010 29.83 839 24.78 15 58.9 60 7.3 45.1
07:50 1010 29.83 839 24.78 15.3 59.5 59 7.4 45.4
07:55 1010 29.83 839 24.78 15.9 60.5 59 7.8 46.1
08:00 1010 29.83 839 24.78 16 60.8 56 7.4 45.3
08:05 1010 29.83 839 24.78 15.8 60.5 54 6.7 44.1
08:10 1010 29.83 839 24.78 16 60.9 56 7.2 45
08:15 1010 29.83 839 24.78 15.7 60.3 55 6.8 44.2
08:20 1010 29.83 839 24.78 16.2 61.1 52 6.5 43.6
08:25 1010 29.83 839 24.78 16.8 62.3 49 6.2 43.2
08:30 1010 29.83 839 24.78 16.8 62.2 49 6.2 43.2
08:35 1010 29.83 839 24.78 17.1 62.7 49 6.4 43.4
08:40 1010 29.83 839 24.78 17.1 62.8 50 6.9 44.4
08:45 1010 29.83 840 24.81 16.8 62.2 51 6.7 44.1
08:50 1010 29.83 840 24.81 16.5 61.7 52 6.6 43.9
08:55 1010 29.83 839 24.78 16.3 61.3 48 5.4 41.7
09:00 1010 29.83 839 24.78 16.6 61.8 46 5 40.9
09:05 1010 29.83 839 24.78 17 62.6 45 5.2 41.3
09:10 1010 29.83 839 24.78 16.9 62.5 48 5.9 42.6
09:15 1010 29.83 839 24.78 16.6 61.8 49 6 42.8
09:20 1010 29.83 839 24.78 16.8 62.2 50 6.3 43.3
09:25 1010 29.83 839 24.78 16.7 62 50 6.2 43.2
09:30 1010 29.83 839 24.78 17.1 62.8 47 5.9 42.5
09:35 1010 29.83 839 24.78 16.5 61.6 47 5.3 41.6
09:40 1010 29.83 839 24.78 16.8 62.2 46 5.1 41.3
09:45 1010 29.83 839 24.78 17.2 62.9 46 5.6 42.1
09:50 1010 29.83 839 24.78 16.6 61.8 47 5.3 41.5
09:55 1010 29.83 839 24.78 16.2 61.1 48 5.1 41.2
10:00 1010 29.83 839 24.78 16 60.7 48 4.9 40.8
10:05 1010 29.83 839 24.78 16.5 61.6 48 5.4 41.7
10:10 1010 29.83 839 24.78 17 62.6 45 5.1 41.2
10:15 1010 29.83 839 24.78 17.6 63.6 43 4.9 40.8
10:20 1010 29.83 839 24.78 17.7 63.8 43 4.9 40.9
10:25 1010 29.83 839 24.78 17.3 63.1 45 5.5 41.8
10:30 1010 29.83 839 24.78 17.1 62.7 44 5 40.9
10:35 1010 29.83 839 24.78 17.4 63.4 43 4.7 40.5
10:40 1010 29.83 839 24.78 17.3 63.2 44 5 41
10:45 1010 29.83 839 24.78 16.2 61.1 47 4.9 40.7
10:50 1010 29.83 839 24.78 16.4 61.6 45 4.6 40.2
10:55 1010 29.83 839 24.78 17 62.6 44 4.9 40.8
11:00 1009 29.8 839 24.78 18 64.4 41 4.6 40.3
11:05 1009 29.8 839 24.78 18.6 65.5 40 4.8 40.6
11:10 1009 29.8 839 24.78 17.9 64.1 45 5.8 42.4
11:15 1009 29.8 839 24.78 16.8 62.2 50 6.4 43.6
11:20 1009 29.8 839 24.78 16.1 60.9 54 7 44.5
11:25 1010 29.83 839 24.78 15.3 59.6 55 6.4 43.5
11:30 1009 29.8 838 24.75 14.9 58.8 57 6.4 43.5
11:35 1009 29.8 839 24.78 14.6 58.3 59 6.7 44.1
11:40 1010 29.83 839 24.78 14.5 58.1 60 6.9 44.4
11:45 1010 29.83 839 24.78 14.3 57.8 62 7.2 44.9
11:50 1010 29.83 839 24.78 14.2 57.6 64 7.5 45.5
11:55 1010 29.83 839 24.78 14.2 57.5 61 6.7 44.1
12:00 1010 29.83 839 24.78 13.6 56.5 60 6.2 43.1
12:05 1010 29.83 839 24.78 12.9 55.2 62 5.9 42.7
12:10 1010 29.83 839 24.78 12.5 54.6 66 6.4 43.5
12:15 1010 29.83 839 24.78 12.3 54.2 69 6.8 44.3
12:20 1010 29.83 839 24.78 11.9 53.4 71 6.8 44.2
12:25 1010 29.83 839 24.78 11.5 52.8 53 2.3 36.1
12:30 1009 29.8 838 24.75 13.8 56.8 47 2.8 37
12:35 1009 29.8 839 24.78 14.1 57.3 42 1.4 34.5
12:40 1010 29.83 839 24.78 13.3 55.9 69 7.7 45.9
12:45 1010 29.83 839 24.78 11.3 52.4 71 6.2 43.2
12:50 1010 29.83 839 24.78 11.7 53 61 4.5 40
12:55 1010 29.83 839 24.78 12.8 55 48 2.3 36.1
13:00 1010 29.83 839 24.78 13.2 55.7 48 2.6 36.6
13:05 1010 29.83 839 24.78 13.1 55.5 55 4.4 39.9
13:10 1009 29.8 839 24.78 12.3 54.2 47 1.5 34.8
13:15 1009 29.8 839 24.78 13.1 55.6 41 0.4 32.6
13:20 1009 29.8 839 24.78 13.9 57 54 4.9 40.9
13:25 1009 29.8 839 24.78 12.8 55.1 57 4.7 40.4
13:30 1010 29.83 839 24.78 12.8 55.1 57 4.6 40.3
13:35 1010 29.83 839 24.78 13.1 55.6 58 5 41
13:40 1010 29.83 839 24.78 12.7 54.8 60 5.3 41.5
13:45 1010 29.83 840 24.81 11.8 53.2 62 4.9 40.8
13:50 1010 29.83 839 24.78 11.4 52.6 60 4.1 39.4
13:55 1010 29.83 839 24.78 11.6 52.9 57 3.4 38.1
14:00 1010 29.83 839 24.78 12.1 53.9 58 4.2 39.6
14:05 1010 29.83 840 24.81 12.5 54.5 59 4.7 40.4
14:10 1010 29.83 840 24.81 12.8 55 57 4.6 40.2
14:15 1011 29.85 840 24.81 13 55.4 55 4.2 39.6
14:20 1011 29.85 840 24.81 12.7 54.8 55 3.9 39.1
14:25 1011 29.85 840 24.81 12.7 54.9 56 4.2 39.6
14:30 1011 29.85 840 24.81 13 55.4 58 4.9 40.9
14:35 1010 29.83 840 24.81 13.2 55.7 54 4.1 39.4
14:40 1011 29.85 840 24.81 13.2 55.7 56 4.6 40.3
14:45 1011 29.85 840 24.81 13 55.4 58 5 41
14:50 1011 29.85 840 24.81 13 55.3 58 4.9 40.8
14:55 1011 29.85 840 24.81 13 55.4 60 5.4 41.7
15:00 1011 29.85 840 24.81 13.1 55.5 60 5.5 41.9
15:05 1011 29.85 840 24.81 13.1 55.6 62 5.9 42.7
15:10 1011 29.85 840 24.81 13.1 55.6 60 5.6 42.1
15:15 1011 29.85 840 24.81 13 55.4 62 5.9 42.6
15:20 1011 29.85 840 24.81 12.9 55.2 62 5.8 42.5
15:25 1011 29.85 840 24.81 12.7 54.8 62 5.8 42.4
15:30 1011 29.85 840 24.81 12.3 54.1 65 6 42.7
15:35 1011 29.85 840 24.81 12.2 54 63 5.4 41.7
15:40 1011 29.85 840 24.81 12.3 54.2 62 5.2 41.4
15:45 1011 29.85 840 24.81 12.6 54.6 61 5.3 41.5
15:50 1011 29.85 840 24.81 12.7 54.8 65 6.2 43.2
15:55 1011 29.85 840 24.81 12.4 54.4 69 6.9 44.4
16:00 1011 29.85 841 24.83 12.3 54.1 70 6.9 44.4
16:05 1011 29.85 841 24.83 12.2 54 67 6.4 43.5
16:10 1011 29.85 841 24.83 12.3 54.1 64 5.8 42.5
16:15 1011 29.85 841 24.83 12.1 53.8 68 6.5 43.6
16:20 1011 29.85 841 24.83 11.8 53.2 72 6.9 44.4
16:25 1011 29.85 841 24.83 11.4 52.5 73 6.8 44.2
16:30 1012 29.88 841 24.83 11.4 52.4 67 5.6 42
16:35 1011 29.85 841 24.83 11.4 52.5 66 5.4 41.6
16:40 1011 29.85 841 24.83 11.2 52.1 67 5.4 41.7
16:45 1012 29.88 841 24.83 11.4 52.5 66 5.2 41.4
16:50 1012 29.88 841 24.83 11.6 52.8 66 5.6 42
16:55 1011 29.85 841 24.83 11.7 53 68 6 42.7
17:00 1011 29.85 841 24.83 11.7 53 69 6.3 43.3
17:05 1011 29.85 840 24.81 11.8 53.2 69 6.4 43.5
17:10 1011 29.85 840 24.81 11.7 53.1 71 6.6 44
17:15 1011 29.85 840 24.81 11.6 52.9 69 6.2 43.2
17:20 1011 29.85 840 24.81 11.7 53 66 5.7 42.2
17:25 1011 29.85 840 24.81 11.8 53.2 66 5.8 42.4
17:30 1011 29.85 841 24.83 11.8 53.3 66 5.7 42.3
17:35 1011 29.85 841 24.83 11.8 53.2 65 5.4 41.7
17:40 1011 29.85 840 24.81 11.7 53.1 64 5.2 41.3
17:45 1011 29.85 840 24.81 11.6 52.9 63 4.9 40.9
17:50 1011 29.85 841 24.83 11.5 52.7 65 5.2 41.4
17:55 1012 29.88 841 24.83 11.3 52.3 68 5.7 42.3
18:00 1012 29.88 841 24.83 11.2 52.1 70 5.9 42.7
18:05 1012 29.88 841 24.83 11.1 51.9 69 5.5 42
18:10 1012 29.88 841 24.83 10.7 51.3 70 5.5 41.9
18:15 1012 29.88 841 24.83 10.4 50.7 72 5.6 42
18:20 1012 29.88 841 24.83 10.1 50.2 73 5.5 42
18:25 1012 29.88 841 24.83 10 50 74 5.7 42.2
18:30 1012 29.88 841 24.83 9.9 49.8 74 5.5 41.9
18:35 1012 29.88 841 24.83 9.8 49.6 74 5.4 41.8
18:40 1012 29.88 841 24.83 9.7 49.5 73 5.2 41.4
18:45 1012 29.88 841 24.83 9.7 49.4 74 5.2 41.4
18:50 1012 29.88 841 24.83 9.5 49.1 74 5.1 41.1
18:55 1012 29.88 841 24.83 9.4 48.8 74 4.9 40.9
19:00 1012 29.88 842 24.86 9.4 48.9 72 4.6 40.3
19:05 1012 29.88 842 24.86 9.4 49 71 4.4 39.8
19:10 1013 29.91 842 24.86 9.5 49.1 69 4.2 39.6
19:15 1013 29.91 842 24.86 9.5 49.1 69 4.1 39.4
19:20 1013 29.91 842 24.86 9.4 49 70 4.3 39.7
19:25 1013 29.91 842 24.86 9.3 48.8 71 4.4 39.9
19:30 1013 29.91 842 24.86 9.2 48.6 72 4.5 40.1
19:35 1013 29.91 842 24.86 9.1 48.4 72 4.3 39.8
19:40 1013 29.91 843 24.89 9.1 48.4 71 4.1 39.4
19:45 1014 29.94 843 24.89 9.1 48.3 70 4 39.1
19:50 1014 29.94 843 24.89 9 48.2 69 3.6 38.6
19:55 1014 29.94 843 24.89 8.9 48.1 69 3.5 38.4
20:00 1014 29.94 843 24.89 8.8 47.8 69 3.4 38.1
20:05 1014 29.94 843 24.89 8.7 47.7 71 3.9 38.9
20:10 1014 29.94 843 24.89 8.6 47.4 72 3.9 39
20:15 1014 29.94 843 24.89 8.3 47 73 3.7 38.7
20:20 1014 29.94 844 24.92 8.2 46.7 76 4.3 39.8
20:25 1015 29.97 844 24.92 7.9 46.3 81 4.9 40.8
20:30 1015 29.97 844 24.92 7.5 45.5 84 4.9 40.9
20:35 1015 29.97 844 24.92 7.1 44.9 86 5 40.9
20:40 1015 29.97 844 24.92 7 44.5 88 5.1 41.1
20:45 1015 29.97 844 24.92 6.9 44.4 88 5.1 41.2
20:50 1015 29.97 845 24.95 6.8 44.2 88 5 41
20:55 1015 29.97 845 24.95 6.5 43.8 87 4.6 40.2
21:00 1016 30 845 24.95 6.3 43.4 89 4.7 40.4
21:05 1016 30 845 24.95 6.2 43.2 88 4.4 39.9
21:10 1016 30 845 24.95 6.2 43.1 88 4.3 39.7
21:15 1016 30 845 24.95 6.1 43 88 4.2 39.6
21:20 1016 30 845 24.95 6 42.7 87 4 39.2
21:25 1016 30 846 24.98 5.9 42.6 87 4 39.1
21:30 1016 30 846 24.98 5.8 42.5 87 3.9 39
21:35 1016 30 846 24.98 5.8 42.4 87 3.8 38.8
21:40 1016 30 845 24.95 5.6 42.1 87 3.7 38.7
21:45 1016 30 845 24.95 5.5 41.9 87 3.5 38.4
21:50 1016 30 845 24.95 5.4 41.8 89 3.8 38.9
21:55 1016 30 845 24.95 5.4 41.8 89 3.8 38.8
22:00 1016 30 845 24.95 5.4 41.8 90 3.9 39
22:05 1016 30 845 24.95 5.5 41.9 89 3.8 38.8
22:10 1016 30 845 24.95 5.5 41.9 88 3.7 38.7
22:15 1016 30 845 24.95 5.3 41.6 90 3.8 38.8
22:20 1015 29.97 845 24.95 5.2 41.3 91 3.8 38.9
22:25 1015 29.97 845 24.95 5.1 41.2 91 3.8 38.8
22:30 1015 29.97 845 24.95 5 41 91 3.7 38.6
22:35 1015 29.97 844 24.92 5 41 91 3.6 38.4
22:40 1015 29.97 844 24.92 5 41 89 3.3 38
22:45 1015 29.97 844 24.92 5.1 41.1 87 3.1 37.6
22:50 1015 29.97 844 24.92 5.1 41.1 87 3.1 37.5
22:55 1015 29.97 844 24.92 5.1 41.1 86 3 37.3
23:00 1015 29.97 844 24.92 5 41.1 86 2.8 37.1
23:05 1015 29.97 844 24.92 5 41 86 2.9 37.2
23:10 1015 29.97 844 24.92 5.1 41.1 86 2.9 37.1
23:15 1015 29.97 844 24.92 5.2 41.3 84 2.6 36.8
23:20 1015 29.97 844 24.92 5.2 41.4 83 2.6 36.7
23:25 1015 29.97 844 24.92 5.1 41.2 82 2.3 36.1
23:30 1015 29.97 844 24.92 5 41.1 82 2.1 35.9
23:35 1015 29.97 844 24.92 5 41.1 85 2.7 36.9
23:40 1015 29.97 844 24.92 4.9 40.8 87 3 37.3
23:45 1015 29.97 844 24.92 4.7 40.5 87 2.8 37.1
23:50 1015 29.97 844 24.92 4.7 40.5 89 3 37.4
23:55 1015 29.97 844 24.92 4.7 40.4 88 2.9 37.1
24:00 1015 29.97 844 24.92 4.8 40.6 89 3 37.4